sensor_id;sensor_type;location;lat;lon;timestamp;temperature;humidity
5492;DHT22;2768;53.540;10.224;2022-07-06T00:03:54;16.00;96.50
5492;DHT22;2768;53.540;10.224;2022-07-06T00:09:47;15.90;99.80
5492;DHT22;2768;53.540;10.224;2022-07-06T00:15:42;16.00;99.90
5492;DHT22;2768;53.540;10.224;2022-07-06T00:21:35;16.10;99.90
5492;DHT22;2768;53.540;10.224;2022-07-06T00:27:28;16.00;99.90
5492;DHT22;2768;53.540;10.224;2022-07-06T00:33:22;16.00;99.90
5492;DHT22;2768;53.540;10.224;2022-07-06T00:39:15;16.00;99.90
5492;DHT22;2768;53.540;10.224;2022-07-06T00:45:11;15.90;99.90
5492;DHT22;2768;53.540;10.224;2022-07-06T00:51:06;15.90;99.90
5492;DHT22;2768;53.540;10.224;2022-07-06T00:56:59;15.80;99.90
5492;DHT22;2768;53.540;10.224;2022-07-06T01:02:52;15.80;99.90
5492;DHT22;2768;53.540;10.224;2022-07-06T01:08:47;15.80;99.90
5492;DHT22;2768;53.540;10.224;2022-07-06T01:14:41;15.70;99.90
5492;DHT22;2768;53.540;10.224;2022-07-06T01:20:36;15.70;99.90
5492;DHT22;2768;53.540;10.224;2022-07-06T01:26:29;15.60;99.90
5492;DHT22;2768;53.540;10.224;2022-07-06T01:32:22;15.60;99.90
5492;DHT22;2768;53.540;10.224;2022-07-06T01:38:16;15.40;99.90
5492;DHT22;2768;53.540;10.224;2022-07-06T01:44:10;15.60;99.90
5492;DHT22;2768;53.540;10.224;2022-07-06T01:50:06;15.60;99.90
5492;DHT22;2768;53.540;10.224;2022-07-06T01:56:05;15.60;99.90
5492;DHT22;2768;53.540;10.224;2022-07-06T02:01:59;15.50;99.90
5492;DHT22;2768;53.540;10.224;2022-07-06T02:07:52;15.70;99.90
5492;DHT22;2768;53.540;10.224;2022-07-06T02:13:46;15.40;99.90
5492;DHT22;2768;53.540;10.224;2022-07-06T02:19:39;15.50;99.90
5492;DHT22;2768;53.540;10.224;2022-07-06T02:25:32;15.40;99.90
5492;DHT22;2768;53.540;10.224;2022-07-06T02:31:27;15.40;99.90
5492;DHT22;2768;53.540;10.224;2022-07-06T02:37:21;15.50;99.90
5492;DHT22;2768;53.540;10.224;2022-07-06T02:43:14;15.40;99.90
5492;DHT22;2768;53.540;10.224;2022-07-06T02:49:09;15.40;99.90
5492;DHT22;2768;53.540;10.224;2022-07-06T02:55:03;15.40;99.90
5492;DHT22;2768;53.540;10.224;2022-07-06T03:00:56;15.40;99.90
5492;DHT22;2768;53.540;10.224;2022-07-06T03:06:50;15.40;99.90
5492;DHT22;2768;53.540;10.224;2022-07-06T03:12:44;15.30;99.90
5492;DHT22;2768;53.540;10.224;2022-07-06T03:18:37;15.40;99.90
5492;DHT22;2768;53.540;10.224;2022-07-06T03:24:32;15.30;99.90
5492;DHT22;2768;53.540;10.224;2022-07-06T03:30:25;15.00;99.90
5492;DHT22;2768;53.540;10.224;2022-07-06T03:36:20;15.10;99.90
5492;DHT22;2768;53.540;10.224;2022-07-06T03:42:15;15.20;99.90
5492;DHT22;2768;53.540;10.224;2022-07-06T03:48:08;15.00;99.90
5492;DHT22;2768;53.540;10.224;2022-07-06T03:54:04;15.00;99.90
5492;DHT22;2768;53.540;10.224;2022-07-06T03:59:59;15.00;99.90
5492;DHT22;2768;53.540;10.224;2022-07-06T04:05:52;15.00;99.90
5492;DHT22;2768;53.540;10.224;2022-07-06T04:11:45;14.90;99.90
5492;DHT22;2768;53.540;10.224;2022-07-06T04:17:41;15.00;99.90
5492;DHT22;2768;53.540;10.224;2022-07-06T04:24:03;15.00;99.90
5492;DHT22;2768;53.540;10.224;2022-07-06T04:29:58;14.90;99.90
5492;DHT22;2768;53.540;10.224;2022-07-06T04:35:53;14.90;99.90
5492;DHT22;2768;53.540;10.224;2022-07-06T04:41:50;14.90;99.90
5492;DHT22;2768;53.540;10.224;2022-07-06T04:47:45;14.80;99.90
5492;DHT22;2768;53.540;10.224;2022-07-06T04:53:40;14.90;99.90
5492;DHT22;2768;53.540;10.224;2022-07-06T04:59:34;14.90;99.90
5492;DHT22;2768;53.540;10.224;2022-07-06T05:05:28;14.90;99.90
5492;DHT22;2768;53.540;10.224;2022-07-06T05:11:23;15.00;99.90
5492;DHT22;2768;53.540;10.224;2022-07-06T05:17:18;15.10;99.90
5492;DHT22;2768;53.540;10.224;2022-07-06T05:23:18;15.30;99.90
5492;DHT22;2768;53.540;10.224;2022-07-06T05:29:13;15.20;99.90
5492;DHT22;2768;53.540;10.224;2022-07-06T05:35:08;15.10;99.90
5492;DHT22;2768;53.540;10.224;2022-07-06T05:41:22;15.10;99.90
5492;DHT22;2768;53.540;10.224;2022-07-06T05:47:24;15.10;99.90
5492;DHT22;2768;53.540;10.224;2022-07-06T05:53:35;15.10;99.90
5492;DHT22;2768;53.540;10.224;2022-07-06T05:59:28;15.20;99.90
5492;DHT22;2768;53.540;10.224;2022-07-06T06:05:23;15.20;99.90
5492;DHT22;2768;53.540;10.224;2022-07-06T06:11:21;15.10;99.90
5492;DHT22;2768;53.540;10.224;2022-07-06T06:17:14;14.90;99.90
5492;DHT22;2768;53.540;10.224;2022-07-06T06:23:09;15.00;99.90
5492;DHT22;2768;53.540;10.224;2022-07-06T06:29:02;14.90;99.90
5492;DHT22;2768;53.540;10.224;2022-07-06T06:34:55;14.90;99.90
5492;DHT22;2768;53.540;10.224;2022-07-06T06:40:49;15.00;99.90
5492;DHT22;2768;53.540;10.224;2022-07-06T06:46:43;15.10;99.90
5492;DHT22;2768;53.540;10.224;2022-07-06T06:52:36;15.30;99.90
5492;DHT22;2768;53.540;10.224;2022-07-06T06:58:33;15.40;99.90
5492;DHT22;2768;53.540;10.224;2022-07-06T07:04:46;15.40;99.90
5492;DHT22;2768;53.540;10.224;2022-07-06T07:10:39;15.60;99.90
5492;DHT22;2768;53.540;10.224;2022-07-06T07:16:33;15.90;99.90
5492;DHT22;2768;53.540;10.224;2022-07-06T07:22:27;16.00;99.90
5492;DHT22;2768;53.540;10.224;2022-07-06T07:28:20;16.20;99.90
5492;DHT22;2768;53.540;10.224;2022-07-06T07:34:14;16.20;99.90
5492;DHT22;2768;53.540;10.224;2022-07-06T07:40:08;16.20;99.90
5492;DHT22;2768;53.540;10.224;2022-07-06T07:46:01;16.30;99.90
5492;DHT22;2768;53.540;10.224;2022-07-06T07:51:56;16.50;99.90
5492;DHT22;2768;53.540;10.224;2022-07-06T07:57:49;16.40;99.90
5492;DHT22;2768;53.540;10.224;2022-07-06T08:03:42;16.30;99.90
5492;DHT22;2768;53.540;10.224;2022-07-06T08:09:36;16.50;99.90
5492;DHT22;2768;53.540;10.224;2022-07-06T08:15:29;16.40;99.90
5492;DHT22;2768;53.540;10.224;2022-07-06T08:21:23;16.30;99.90
5492;DHT22;2768;53.540;10.224;2022-07-06T08:27:20;16.30;99.90
5492;DHT22;2768;53.540;10.224;2022-07-06T08:33:13;16.40;99.90
5492;DHT22;2768;53.540;10.224;2022-07-06T08:39:06;16.30;92.20
5492;DHT22;2768;53.540;10.224;2022-07-06T08:45:04;16.80;94.20
5492;DHT22;2768;53.540;10.224;2022-07-06T08:50:58;16.80;73.40
5492;DHT22;2768;53.540;10.224;2022-07-06T08:56:51;16.70;69.30
5492;DHT22;2768;53.540;10.224;2022-07-06T09:02:46;16.70;71.00
5492;DHT22;2768;53.540;10.224;2022-07-06T09:08:43;16.60;82.90
5492;DHT22;2768;53.540;10.224;2022-07-06T09:14:36;16.50;99.90
5492;DHT22;2768;53.540;10.224;2022-07-06T09:20:31;16.40;99.90
5492;DHT22;2768;53.540;10.224;2022-07-06T09:26:25;16.40;98.20
5492;DHT22;2768;53.540;10.224;2022-07-06T09:32:20;16.40;99.90
5492;DHT22;2768;53.540;10.224;2022-07-06T09:38:15;16.20;99.90
5492;DHT22;2768;53.540;10.224;2022-07-06T09:44:09;16.10;99.90
5492;DHT22;2768;53.540;10.224;2022-07-06T09:50:05;16.60;99.90
5492;DHT22;2768;53.540;10.224;2022-07-06T09:55:59;17.00;99.90
5492;DHT22;2768;53.540;10.224;2022-07-06T10:01:56;17.00;92.50
5492;DHT22;2768;53.540;10.224;2022-07-06T10:07:50;16.60;73.80
5492;DHT22;2768;53.540;10.224;2022-07-06T10:13:46;16.80;76.40
5492;DHT22;2768;53.540;10.224;2022-07-06T10:19:41;17.30;66.00
5492;DHT22;2768;53.540;10.224;2022-07-06T10:25:34;17.70;49.90
5492;DHT22;2768;53.540;10.224;2022-07-06T10:31:29;17.90;48.20
5492;DHT22;2768;53.540;10.224;2022-07-06T10:37:24;17.70;27.50
5492;DHT22;2768;53.540;10.224;2022-07-06T10:43:17;18.00;38.20
5492;DHT22;2768;53.540;10.224;2022-07-06T10:49:16;17.50;27.60
5492;DHT22;2768;53.540;10.224;2022-07-06T10:55:31;17.10;45.30
5492;DHT22;2768;53.540;10.224;2022-07-06T11:01:28;16.40;49.80
5492;DHT22;2768;53.540;10.224;2022-07-06T11:07:22;16.20;52.20
5492;DHT22;2768;53.540;10.224;2022-07-06T11:13:25;16.10;43.00
5492;DHT22;2768;53.540;10.224;2022-07-06T11:19:20;16.00;40.00
5492;DHT22;2768;53.540;10.224;2022-07-06T11:25:17;16.10;50.30
5492;DHT22;2768;53.540;10.224;2022-07-06T11:31:11;16.10;45.30
5492;DHT22;2768;53.540;10.224;2022-07-06T11:37:05;16.10;47.20
5492;DHT22;2768;53.540;10.224;2022-07-06T11:43:00;15.90;54.80
5492;DHT22;2768;53.540;10.224;2022-07-06T11:48:54;16.10;64.20
5492;DHT22;2768;53.540;10.224;2022-07-06T11:54:48;16.50;68.70
5492;DHT22;2768;53.540;10.224;2022-07-06T12:00:42;17.40;71.00
5492;DHT22;2768;53.540;10.224;2022-07-06T12:06:36;17.20;51.60
5492;DHT22;2768;53.540;10.224;2022-07-06T12:12:34;17.60;60.40
5492;DHT22;2768;53.540;10.224;2022-07-06T12:18:37;17.40;56.30
5492;DHT22;2768;53.540;10.224;2022-07-06T12:24:32;17.50;23.50
5492;DHT22;2768;53.540;10.224;2022-07-06T12:30:25;18.40;24.40
5492;DHT22;2768;53.540;10.224;2022-07-06T12:36:20;19.10;2.30
5492;DHT22;2768;53.540;10.224;2022-07-06T12:42:15;19.30;1.00
5492;DHT22;2768;53.540;10.224;2022-07-06T12:48:11;19.20;1.00
5492;DHT22;2768;53.540;10.224;2022-07-06T12:54:15;19.00;1.00
5492;DHT22;2768;53.540;10.224;2022-07-06T13:00:09;19.80;1.00
5492;DHT22;2768;53.540;10.224;2022-07-06T13:06:03;19.30;1.00
5492;DHT22;2768;53.540;10.224;2022-07-06T13:11:58;18.70;1.00
5492;DHT22;2768;53.540;10.224;2022-07-06T13:17:51;19.00;1.00
5492;DHT22;2768;53.540;10.224;2022-07-06T13:23:44;19.20;1.00
5492;DHT22;2768;53.540;10.224;2022-07-06T13:29:39;19.00;1.00
5492;DHT22;2768;53.540;10.224;2022-07-06T13:35:32;19.30;1.00
5492;DHT22;2768;53.540;10.224;2022-07-06T13:41:25;20.00;1.00
5492;DHT22;2768;53.540;10.224;2022-07-06T13:47:19;19.40;1.00
5492;DHT22;2768;53.540;10.224;2022-07-06T13:53:12;19.40;1.00
5492;DHT22;2768;53.540;10.224;2022-07-06T13:59:05;20.40;1.00
5492;DHT22;2768;53.540;10.224;2022-07-06T14:05:00;20.80;1.00
5492;DHT22;2768;53.540;10.224;2022-07-06T14:10:53;21.20;1.00
5492;DHT22;2768;53.540;10.224;2022-07-06T14:16:46;21.10;1.00
5492;DHT22;2768;53.540;10.224;2022-07-06T14:22:41;21.60;1.00
5492;DHT22;2768;53.540;10.224;2022-07-06T14:28:35;21.90;1.00
5492;DHT22;2768;53.540;10.224;2022-07-06T14:34:28;21.30;1.00
5492;DHT22;2768;53.540;10.224;2022-07-06T14:40:22;20.60;1.00
5492;DHT22;2768;53.540;10.224;2022-07-06T14:46:15;20.60;1.00
5492;DHT22;2768;53.540;10.224;2022-07-06T14:52:09;20.00;1.00
5492;DHT22;2768;53.540;10.224;2022-07-06T14:58:04;20.00;1.00
5492;DHT22;2768;53.540;10.224;2022-07-06T15:03:57;19.70;1.00
5492;DHT22;2768;53.540;10.224;2022-07-06T15:09:50;19.80;1.00
5492;DHT22;2768;53.540;10.224;2022-07-06T15:15:45;20.30;1.00
5492;DHT22;2768;53.540;10.224;2022-07-06T15:21:48;19.70;1.00
5492;DHT22;2768;53.540;10.224;2022-07-06T15:27:41;20.00;1.00
5492;DHT22;2768;53.540;10.224;2022-07-06T15:33:36;20.00;1.00
5492;DHT22;2768;53.540;10.224;2022-07-06T15:39:29;20.30;1.00
5492;DHT22;2768;53.540;10.224;2022-07-06T15:45:22;20.00;1.00
5492;DHT22;2768;53.540;10.224;2022-07-06T15:51:18;19.70;1.00
5492;DHT22;2768;53.540;10.224;2022-07-06T15:57:11;19.50;1.00
5492;DHT22;2768;53.540;10.224;2022-07-06T16:03:05;19.30;1.00
5492;DHT22;2768;53.540;10.224;2022-07-06T16:08:59;19.10;1.00
5492;DHT22;2768;53.540;10.224;2022-07-06T16:14:52;19.10;1.00
5492;DHT22;2768;53.540;10.224;2022-07-06T16:20:45;19.40;1.00
5492;DHT22;2768;53.540;10.224;2022-07-06T16:26:39;19.70;1.00
5492;DHT22;2768;53.540;10.224;2022-07-06T16:32:33;20.00;1.00
5492;DHT22;2768;53.540;10.224;2022-07-06T16:38:26;20.20;1.00
5492;DHT22;2768;53.540;10.224;2022-07-06T16:44:20;19.90;1.00
5492;DHT22;2768;53.540;10.224;2022-07-06T16:50:13;19.90;1.00
5492;DHT22;2768;53.540;10.224;2022-07-06T16:56:07;19.80;1.00
5492;DHT22;2768;53.540;10.224;2022-07-06T17:02:01;19.60;1.00
5492;DHT22;2768;53.540;10.224;2022-07-06T17:07:54;19.70;1.00
5492;DHT22;2768;53.540;10.224;2022-07-06T17:13:47;19.70;1.00
5492;DHT22;2768;53.540;10.224;2022-07-06T17:19:42;19.50;1.00
5492;DHT22;2768;53.540;10.224;2022-07-06T17:25:35;19.40;1.00
5492;DHT22;2768;53.540;10.224;2022-07-06T17:31:28;19.40;1.00
5492;DHT22;2768;53.540;10.224;2022-07-06T17:37:22;19.30;1.00
5492;DHT22;2768;53.540;10.224;2022-07-06T17:43:16;19.20;1.00
5492;DHT22;2768;53.540;10.224;2022-07-06T17:49:09;19.30;1.00
5492;DHT22;2768;53.540;10.224;2022-07-06T17:55:11;19.10;1.00
5492;DHT22;2768;53.540;10.224;2022-07-06T18:01:04;18.90;1.00
5492;DHT22;2768;53.540;10.224;2022-07-06T18:06:57;18.80;1.00
5492;DHT22;2768;53.540;10.224;2022-07-06T18:12:52;18.70;1.00
5492;DHT22;2768;53.540;10.224;2022-07-06T18:18:45;18.60;1.00
5492;DHT22;2768;53.540;10.224;2022-07-06T18:24:38;18.50;1.00
5492;DHT22;2768;53.540;10.224;2022-07-06T18:30:33;18.40;1.00
5492;DHT22;2768;53.540;10.224;2022-07-06T18:36:26;18.40;1.00
5492;DHT22;2768;53.540;10.224;2022-07-06T18:42:20;18.30;1.00
5492;DHT22;2768;53.540;10.224;2022-07-06T18:48:16;18.20;1.00
5492;DHT22;2768;53.540;10.224;2022-07-06T18:54:10;18.10;1.00
5492;DHT22;2768;53.540;10.224;2022-07-06T19:00:04;18.10;1.00
5492;DHT22;2768;53.540;10.224;2022-07-06T19:05:58;18.10;1.00
5492;DHT22;2768;53.540;10.224;2022-07-06T19:11:51;18.00;1.00
5492;DHT22;2768;53.540;10.224;2022-07-06T19:17:44;18.00;1.00
5492;DHT22;2768;53.540;10.224;2022-07-06T19:23:46;17.90;1.00
5492;DHT22;2768;53.540;10.224;2022-07-06T19:29:40;17.90;1.00
5492;DHT22;2768;53.540;10.224;2022-07-06T19:35:33;17.90;1.00
5492;DHT22;2768;53.540;10.224;2022-07-06T19:41:29;17.80;1.00
5492;DHT22;2768;53.540;10.224;2022-07-06T19:47:22;17.70;1.00
5492;DHT22;2768;53.540;10.224;2022-07-06T19:53:15;17.60;1.00
5492;DHT22;2768;53.540;10.224;2022-07-06T19:59:10;17.60;1.00
5492;DHT22;2768;53.540;10.224;2022-07-06T20:05:03;17.40;1.00
5492;DHT22;2768;53.540;10.224;2022-07-06T20:10:56;17.00;32.90
5492;DHT22;2768;53.540;10.224;2022-07-06T20:16:51;16.40;99.90
5492;DHT22;2768;53.540;10.224;2022-07-06T20:22:44;16.20;99.90
5492;DHT22;2768;53.540;10.224;2022-07-06T20:28:37;16.10;99.90
5492;DHT22;2768;53.540;10.224;2022-07-06T20:34:32;15.80;99.90
5492;DHT22;2768;53.540;10.224;2022-07-06T20:40:25;15.60;99.90
5492;DHT22;2768;53.540;10.224;2022-07-06T20:46:18;15.50;99.90
5492;DHT22;2768;53.540;10.224;2022-07-06T20:52:13;15.40;99.90
5492;DHT22;2768;53.540;10.224;2022-07-06T20:58:06;15.50;99.90
5492;DHT22;2768;53.540;10.224;2022-07-06T21:04:00;15.50;99.90
5492;DHT22;2768;53.540;10.224;2022-07-06T21:09:54;15.40;99.90
5492;DHT22;2768;53.540;10.224;2022-07-06T21:15:47;15.50;99.90
5492;DHT22;2768;53.540;10.224;2022-07-06T21:21:41;15.50;99.90
5492;DHT22;2768;53.540;10.224;2022-07-06T21:27:36;15.30;99.90
5492;DHT22;2768;53.540;10.224;2022-07-06T21:33:30;15.30;99.90
5492;DHT22;2768;53.540;10.224;2022-07-06T21:39:23;15.20;99.90
5492;DHT22;2768;53.540;10.224;2022-07-06T21:45:18;15.20;99.90
5492;DHT22;2768;53.540;10.224;2022-07-06T21:51:11;15.30;99.90
5492;DHT22;2768;53.540;10.224;2022-07-06T21:57:05;15.20;99.90
5492;DHT22;2768;53.540;10.224;2022-07-06T22:02:59;15.10;99.90
5492;DHT22;2768;53.540;10.224;2022-07-06T22:08:52;15.10;99.90
5492;DHT22;2768;53.540;10.224;2022-07-06T22:14:45;15.00;99.90
5492;DHT22;2768;53.540;10.224;2022-07-06T22:20:39;15.00;99.90
5492;DHT22;2768;53.540;10.224;2022-07-06T22:26:33;15.00;99.90
5492;DHT22;2768;53.540;10.224;2022-07-06T22:32:26;15.00;99.90
5492;DHT22;2768;53.540;10.224;2022-07-06T22:38:20;14.90;99.90
5492;DHT22;2768;53.540;10.224;2022-07-06T22:44:13;14.70;99.90
5492;DHT22;2768;53.540;10.224;2022-07-06T22:50:07;14.80;99.90
5492;DHT22;2768;53.540;10.224;2022-07-06T22:56:02;14.60;99.90
5492;DHT22;2768;53.540;10.224;2022-07-06T23:01:56;14.70;99.90
5492;DHT22;2768;53.540;10.224;2022-07-06T23:07:49;14.70;99.90
5492;DHT22;2768;53.540;10.224;2022-07-06T23:13:44;14.60;99.90
5492;DHT22;2768;53.540;10.224;2022-07-06T23:19:37;14.60;99.90
5492;DHT22;2768;53.540;10.224;2022-07-06T23:25:30;14.50;1.00
5492;DHT22;2768;53.540;10.224;2022-07-06T23:31:24;14.50;1.00
5492;DHT22;2768;53.540;10.224;2022-07-06T23:37:17;14.50;1.00
5492;DHT22;2768;53.540;10.224;2022-07-06T23:43:10;14.50;1.00
5492;DHT22;2768;53.540;10.224;2022-07-06T23:49:05;14.40;1.00
5492;DHT22;2768;53.540;10.224;2022-07-06T23:54:58;14.40;1.00
